Time;durP1;ratioP1;P1;durP2;ratioP2;P2;SDS_P1;SDS_P2;PMS_P1;PMS_P2;Temp;Humidity;BMP_temperature;BMP_pressure;BME280_temperature;BME280_humidity;BME280_pressure;Samples;Min_cycle;Max_cycle;Signal;HPM_P1;HPM_P2
2021/10/29 00:01:08;;;;;;;32.80;25.10;;;8.70;99.90;;;;;;5034553;28;20672;-52
2021/10/29 00:03:34;;;;;;;23.70;20.80;;;8.70;99.90;;;;;;5034110;28;20180;-56
2021/10/29 00:06:01;;;;;;;23.40;20.43;;;8.60;99.90;;;;;;5033902;28;20476;-56
2021/10/29 00:08:26;;;;;;;28.20;22.43;;;8.60;99.90;;;;;;5056719;23;20519;-58
2021/10/29 00:10:52;;;;;;;29.83;22.30;;;8.50;99.90;;;;;;5033784;28;20545;-56
2021/10/29 00:13:18;;;;;;;27.80;23.57;;;8.50;99.90;;;;;;5034271;28;20180;-58
2021/10/29 00:15:43;;;;;;;31.33;25.23;;;8.50;99.90;;;;;;5034167;28;20179;-57
2021/10/29 00:18:09;;;;;;;34.10;26.40;;;8.50;99.90;;;;;;5034067;28;20214;-55
2021/10/29 00:20:34;;;;;;;21.97;19.67;;;8.50;99.90;;;;;;5034084;28;20193;-58
2021/10/29 00:23:00;;;;;;;21.90;18.20;;;8.70;99.90;;;;;;5033782;28;20169;-58
2021/10/29 00:25:26;;;;;;;26.70;21.63;;;8.80;99.90;;;;;;5033809;28;20567;-55
2021/10/29 00:27:52;;;;;;;24.37;20.23;;;8.80;99.90;;;;;;5033754;28;20271;-58
2021/10/29 00:30:18;;;;;;;27.80;22.93;;;8.80;99.90;;;;;;5033941;28;20414;-58
2021/10/29 00:32:44;;;;;;;27.10;21.27;;;8.60;99.90;;;;;;5033617;28;20170;-54
2021/10/29 00:35:09;;;;;;;25.17;21.20;;;8.60;99.90;;;;;;5033640;28;20537;-57
2021/10/29 00:37:39;;;;;;;21.90;19.47;;;8.60;99.90;;;;;;5015552;28;20917;-58
2021/10/29 00:40:06;;;;;;;29.40;23.23;;;8.60;99.90;;;;;;5033686;28;20203;-58
2021/10/29 00:42:32;;;;;;;27.07;21.97;;;8.40;99.90;;;;;;5033565;28;20411;-55
2021/10/29 00:44:58;;;;;;;32.53;24.80;;;8.40;99.90;;;;;;5033732;28;20399;-58
2021/10/29 00:47:23;;;;;;;33.20;25.37;;;8.50;99.90;;;;;;5033603;28;20250;-57
2021/10/29 00:49:49;;;;;;;25.47;21.17;;;8.50;99.90;;;;;;5033442;28;20175;-55
2021/10/29 00:52:16;;;;;;;24.63;19.57;;;8.40;99.90;;;;;;5033638;28;20230;-58
2021/10/29 00:54:41;;;;;;;25.90;22.00;;;8.30;99.90;;;;;;5033112;28;20185;-58
2021/10/29 00:57:08;;;;;;;31.40;24.20;;;8.20;99.90;;;;;;5033069;28;20473;-58
2021/10/29 00:59:33;;;;;;;31.47;22.97;;;8.00;99.90;;;;;;5033331;28;20208;-53
2021/10/29 01:01:59;;;;;;;29.53;22.70;;;8.00;99.90;;;;;;5033234;28;20484;-52
2021/10/29 01:04:25;;;;;;;29.43;22.60;;;8.00;99.90;;;;;;5033436;28;20207;-55
2021/10/29 01:06:51;;;;;;;33.03;26.20;;;8.10;99.90;;;;;;5033455;28;20194;-57
2021/10/29 01:09:16;;;;;;;34.70;27.30;;;8.00;99.90;;;;;;5032094;28;20501;-57
2021/10/29 01:11:43;;;;;;;29.40;24.67;;;8.00;99.90;;;;;;5032864;28;20453;-57
2021/10/29 01:14:09;;;;;;;37.10;27.67;;;8.10;99.90;;;;;;5033304;28;20261;-52
2021/10/29 01:16:34;;;;;;;30.47;25.07;;;8.30;99.90;;;;;;5033053;28;20888;-53
2021/10/29 01:19:00;;;;;;;36.57;27.40;;;8.40;99.90;;;;;;5000059;28;20481;-56
2021/10/29 01:21:26;;;;;;;26.87;22.30;;;8.40;99.90;;;;;;4993626;28;20186;-56
2021/10/29 01:23:52;;;;;;;30.27;24.77;;;8.50;99.90;;;;;;4993484;28;20173;-56
2021/10/29 01:26:18;;;;;;;29.00;24.80;;;8.50;99.90;;;;;;4993440;28;20662;-58
2021/10/29 01:28:45;;;;;;;27.47;22.97;;;8.50;99.90;;;;;;4993744;28;20207;-53
2021/10/29 01:31:12;;;;;;;33.70;24.50;;;8.40;99.90;;;;;;4993799;28;20413;-54
2021/10/29 01:33:38;;;;;;;32.90;27.37;;;8.10;99.90;;;;;;4993480;28;20495;-56
2021/10/29 01:36:04;;;;;;;29.77;24.50;;;8.10;99.90;;;;;;4993724;28;20493;-55
2021/10/29 01:38:35;;;;;;;24.57;21.10;;;8.20;99.90;;;;;;5012998;28;20194;-58
2021/10/29 01:41:01;;;;;;;26.97;20.80;;;8.30;99.90;;;;;;5032794;28;20446;-59
2021/10/29 01:43:30;;;;;;;26.63;22.20;;;8.30;99.90;;;;;;5032671;28;20414;-58
2021/10/29 01:45:56;;;;;;;26.57;22.10;;;8.30;99.90;;;;;;5020162;28;20174;-54
2021/10/29 01:48:23;;;;;;;29.97;23.10;;;8.40;99.90;;;;;;5004916;28;20430;-56
2021/10/29 01:50:51;;;;;;;27.27;23.70;;;8.30;99.90;;;;;;5013236;28;20482;-53
2021/10/29 01:53:16;;;;;;;26.00;21.97;;;8.30;99.90;;;;;;5012655;28;20495;-58
2021/10/29 01:55:42;;;;;;;24.37;21.40;;;8.40;99.90;;;;;;5013218;28;20448;-53
2021/10/29 01:58:08;;;;;;;26.17;22.00;;;8.40;99.90;;;;;;5012698;28;20194;-58
2021/10/29 02:00:34;;;;;;;29.60;24.60;;;8.30;99.90;;;;;;5012818;28;20251;-57
2021/10/29 02:02:59;;;;;;;27.67;23.20;;;8.30;99.90;;;;;;5012963;28;20411;-52
2021/10/29 02:05:25;;;;;;;33.40;26.07;;;8.20;99.90;;;;;;5012793;28;20253;-58
2021/10/29 02:07:51;;;;;;;25.83;21.57;;;8.10;99.90;;;;;;5016869;28;20199;-55
2021/10/29 02:10:17;;;;;;;30.17;24.60;;;8.00;99.90;;;;;;5032536;28;20648;-58
2021/10/29 02:12:42;;;;;;;34.07;25.17;;;8.00;99.90;;;;;;5032569;28;20180;-58
2021/10/29 02:15:08;;;;;;;28.97;24.70;;;7.90;99.90;;;;;;5033065;28;20800;-58
2021/10/29 02:17:34;;;;;;;42.70;32.07;;;7.90;99.90;;;;;;5032338;28;20191;-58
2021/10/29 02:20:01;;;;;;;28.30;22.23;;;7.90;99.90;;;;;;5034183;28;20461;-57
2021/10/29 02:22:26;;;;;;;37.80;30.03;;;7.90;99.90;;;;;;5036564;28;20169;-56
2021/10/29 02:24:52;;;;;;;38.90;26.20;;;7.90;99.90;;;;;;5035959;28;20418;-56
2021/10/29 02:27:18;;;;;;;36.03;28.10;;;8.00;99.90;;;;;;5035729;28;20251;-58
2021/10/29 02:29:43;;;;;;;35.80;26.40;;;8.00;99.90;;;;;;5036288;28;20694;-55
2021/10/29 02:32:09;;;;;;;33.03;25.50;;;8.10;99.90;;;;;;5036251;28;20632;-57
2021/10/29 02:34:35;;;;;;;42.53;31.40;;;8.20;99.90;;;;;;5035907;28;20188;-58
2021/10/29 02:37:00;;;;;;;29.73;22.80;;;8.20;99.90;;;;;;5036124;28;20402;-57
2021/10/29 02:39:26;;;;;;;34.00;26.70;;;8.20;99.90;;;;;;5035280;28;20279;-56
2021/10/29 02:41:52;;;;;;;37.63;29.13;;;8.10;99.90;;;;;;5035714;28;20173;-56
2021/10/29 02:44:17;;;;;;;31.10;25.10;;;8.00;99.90;;;;;;5035664;28;20216;-56
2021/10/29 02:46:43;;;;;;;26.63;21.97;;;8.00;99.90;;;;;;5035928;28;20203;-55
2021/10/29 02:49:09;;;;;;;31.10;26.43;;;8.00;99.90;;;;;;5035503;28;20225;-58
2021/10/29 02:51:35;;;;;;;27.67;22.33;;;8.00;99.90;;;;;;5035807;28;20415;-58
2021/10/29 02:54:01;;;;;;;28.33;22.50;;;8.10;99.90;;;;;;5035484;28;20423;-58
2021/10/29 02:56:27;;;;;;;25.67;21.77;;;8.20;99.90;;;;;;5035474;28;20687;-59
2021/10/29 02:58:53;;;;;;;27.77;23.40;;;8.20;99.90;;;;;;5035467;28;20433;-58
2021/10/29 03:01:18;;;;;;;23.03;20.47;;;8.10;99.90;;;;;;5035763;28;20588;-56
2021/10/29 03:03:44;;;;;;;26.40;22.00;;;8.10;99.90;;;;;;5035536;28;20403;-55
2021/10/29 03:06:09;;;;;;;27.40;23.67;;;8.00;99.90;;;;;;5035882;28;20171;-57
2021/10/29 03:08:35;;;;;;;31.37;25.97;;;7.90;99.90;;;;;;5035040;28;20710;-56
2021/10/29 03:11:01;;;;;;;26.53;21.23;;;7.90;99.90;;;;;;5035426;28;20579;-56
2021/10/29 03:13:27;;;;;;;26.97;23.13;;;7.80;99.90;;;;;;5008931;28;20212;-57
2021/10/29 03:15:53;;;;;;;27.97;22.13;;;7.90;99.90;;;;;;4995680;28;20191;-58
2021/10/29 03:18:19;;;;;;;31.90;24.87;;;7.90;99.90;;;;;;4995965;28;20434;-56
2021/10/29 03:20:46;;;;;;;22.30;19.80;;;7.80;99.90;;;;;;4995597;28;20451;-59
2021/10/29 03:23:14;;;;;;;37.63;26.40;;;7.70;99.90;;;;;;4995317;28;20461;-57
2021/10/29 03:25:40;;;;;;;25.47;22.30;;;7.70;99.90;;;;;;4995820;28;20411;-56
2021/10/29 03:28:06;;;;;;;22.90;19.80;;;7.70;99.90;;;;;;4995304;28;20428;-58
2021/10/29 03:30:33;;;;;;;25.27;21.10;;;7.70;99.90;;;;;;4995744;28;20439;-58
2021/10/29 03:32:58;;;;;;;30.20;22.83;;;7.70;99.90;;;;;;4995020;28;20408;-55
2021/10/29 03:35:25;;;;;;;26.50;22.10;;;7.70;99.90;;;;;;4995758;28;20500;-54
2021/10/29 03:43:12;;;;;;;24.57;20.77;;;7.80;99.90;;;;;;5034529;28;20444;-57
2021/10/29 03:46:23;;;;;;;23.33;20.83;;;7.80;99.90;;;;;;5034866;28;20474;-57
2021/10/29 03:51:03;;;;;;;24.97;21.30;;;7.80;99.90;;;;;;5034871;28;20393;-51
2021/10/29 03:53:46;;;;;;;22.83;19.17;;;7.80;99.90;;;;;;5034369;28;20414;-53
2021/10/29 03:56:19;;;;;;;22.93;19.20;;;7.80;99.90;;;;;;5034374;28;20884;-58
2021/10/29 03:58:50;;;;;;;23.87;21.17;;;7.90;99.90;;;;;;5033937;28;20427;-57
2021/10/29 04:01:16;;;;;;;26.83;22.67;;;7.80;99.90;;;;;;5034483;28;20415;-54
2021/10/29 04:03:43;;;;;;;28.97;22.30;;;7.80;99.90;;;;;;5034207;28;20411;-57
2021/10/29 04:06:09;;;;;;;25.47;20.90;;;7.80;99.90;;;;;;5034139;28;20421;-57
2021/10/29 04:08:34;;;;;;;27.50;22.37;;;7.80;99.90;;;;;;5033690;28;20455;-57
2021/10/29 04:11:00;;;;;;;26.13;20.83;;;7.80;99.90;;;;;;5034341;28;20179;-57
2021/10/29 04:13:28;;;;;;;29.03;22.37;;;7.70;99.90;;;;;;5034074;28;20175;-55
2021/10/29 04:15:54;;;;;;;25.03;21.57;;;7.70;99.90;;;;;;5034196;28;20267;-56
2021/10/29 04:18:21;;;;;;;22.20;18.73;;;7.60;99.90;;;;;;5034033;28;20480;-57
2021/10/29 04:20:47;;;;;;;23.77;20.17;;;7.60;99.90;;;;;;5034391;28;20450;-58
2021/10/29 04:23:13;;;;;;;25.57;21.50;;;7.60;99.90;;;;;;5033540;28;20419;-55
2021/10/29 04:25:38;;;;;;;20.23;17.40;;;7.50;99.90;;;;;;5033726;28;20247;-58
2021/10/29 04:28:11;;;;;;;20.17;16.57;;;7.50;99.90;;;;;;5033215;28;20244;-57
2021/10/29 04:30:38;;;;;;;21.83;19.03;;;7.60;99.90;;;;;;5034074;28;20633;-57
2021/10/29 04:33:07;;;;;;;22.63;18.03;;;7.50;99.90;;;;;;5033937;28;20438;-53
2021/10/29 04:35:38;;;;;;;23.83;20.70;;;7.40;99.90;;;;;;5034492;28;20425;-54
2021/10/29 04:38:08;;;;;;;28.77;23.90;;;7.40;99.90;;;;;;5027533;28;21235;-56
2021/10/29 04:40:35;;;;;;;29.37;24.37;;;7.40;99.90;;;;;;5003210;28;20475;-56
2021/10/29 04:43:03;;;;;;;24.23;20.40;;;7.40;99.90;;;;;;4993201;28;20416;-54
2021/10/29 04:45:29;;;;;;;23.40;19.27;;;7.50;99.90;;;;;;4994011;28;20408;-56
2021/10/29 04:47:54;;;;;;;23.67;20.10;;;7.40;99.90;;;;;;4994180;28;20424;-57
2021/10/29 04:50:20;;;;;;;26.47;21.17;;;7.30;99.90;;;;;;4994298;28;20181;-57
2021/10/29 04:52:46;;;;;;;21.30;17.83;;;7.40;99.90;;;;;;4994264;28;20185;-58
2021/10/29 04:55:12;;;;;;;21.77;19.10;;;7.40;99.90;;;;;;4993663;28;20194;-57
2021/10/29 04:57:37;;;;;;;24.50;21.33;;;7.30;99.90;;;;;;4993619;28;20205;-57
2021/10/29 05:00:05;;;;;;;25.37;20.53;;;7.30;99.90;;;;;;4993780;28;20228;-54
2021/10/29 05:02:32;;;;;;;25.77;21.50;;;7.20;99.90;;;;;;4993975;28;20174;-57
2021/10/29 05:04:57;;;;;;;28.50;24.00;;;7.20;99.90;;;;;;4993790;28;20881;-57
2021/10/29 05:07:23;;;;;;;24.80;20.10;;;7.30;99.90;;;;;;4995156;28;20404;-57
2021/10/29 05:09:48;;;;;;;29.17;24.00;;;7.40;99.90;;;;;;5033035;28;20163;-52
2021/10/29 05:12:14;;;;;;;27.40;22.73;;;7.40;99.90;;;;;;5032858;28;20171;-57
2021/10/29 05:14:40;;;;;;;28.30;21.43;;;7.40;99.90;;;;;;5033338;28;20179;-57
2021/10/29 05:17:05;;;;;;;22.30;19.90;;;7.50;99.90;;;;;;5032985;28;20262;-57
2021/10/29 05:19:31;;;;;;;24.40;20.60;;;7.50;99.90;;;;;;5032614;28;20243;-56
2021/10/29 05:21:57;;;;;;;27.63;22.60;;;7.40;99.90;;;;;;5010538;28;20181;-58
2021/10/29 05:24:23;;;;;;;23.10;18.67;;;7.50;99.90;;;;;;4993403;28;20175;-57
2021/10/29 05:26:48;;;;;;;31.17;24.60;;;7.50;99.90;;;;;;4993374;28;20901;-57
2021/10/29 05:29:14;;;;;;;26.73;23.23;;;7.50;99.90;;;;;;4993799;28;20254;-58
2021/10/29 05:31:40;;;;;;;27.63;22.17;;;7.50;99.90;;;;;;4993744;28;20662;-56
2021/10/29 05:34:06;;;;;;;22.77;18.83;;;7.50;99.90;;;;;;4993782;28;20200;-57
2021/10/29 05:36:32;;;;;;;23.03;19.13;;;7.50;99.90;;;;;;4993870;28;20284;-56
2021/10/29 05:38:58;;;;;;;25.23;21.77;;;7.50;99.90;;;;;;5020528;28;20448;-52
2021/10/29 05:41:24;;;;;;;23.87;19.70;;;7.40;99.90;;;;;;5032842;28;20405;-55
2021/10/29 05:43:50;;;;;;;29.00;23.33;;;7.50;99.90;;;;;;5032617;28;20176;-56
2021/10/29 05:46:16;;;;;;;20.57;18.47;;;7.40;99.90;;;;;;5033242;28;20171;-58
2021/10/29 05:48:42;;;;;;;25.20;20.80;;;7.50;99.90;;;;;;5032666;28;20463;-58
2021/10/29 05:51:10;;;;;;;25.20;20.63;;;7.40;99.90;;;;;;5032783;28;20453;-53
2021/10/29 05:53:51;;;;;;;22.90;19.00;;;7.40;99.90;;;;;;5032359;28;20168;-49
2021/10/29 05:56:17;;;;;;;22.90;20.10;;;7.50;99.90;;;;;;5036166;28;20489;-54
2021/10/29 05:58:42;;;;;;;26.17;20.57;;;7.50;99.90;;;;;;5036318;28;20773;-56
2021/10/29 06:01:08;;;;;;;23.10;19.87;;;7.50;99.90;;;;;;5036726;28;20507;-57
2021/10/29 06:03:34;;;;;;;27.47;22.00;;;7.60;99.90;;;;;;5036589;28;20230;-58
2021/10/29 06:06:00;;;;;;;23.60;20.53;;;7.60;99.90;;;;;;5036438;28;20263;-58
2021/10/29 06:08:25;;;;;;;24.33;20.17;;;7.60;99.90;;;;;;5059070;23;20227;-58
2021/10/29 06:10:52;;;;;;;23.97;21.33;;;7.60;99.90;;;;;;5036541;28;20176;-56
2021/10/29 06:13:18;;;;;;;25.23;20.30;;;7.60;99.90;;;;;;5036043;28;20650;-59
2021/10/29 06:15:46;;;;;;;29.20;23.20;;;7.60;99.90;;;;;;5036157;28;20437;-58
2021/10/29 06:18:12;;;;;;;27.17;22.47;;;7.40;99.90;;;;;;5036047;28;20437;-56
2021/10/29 06:20:39;;;;;;;29.50;22.87;;;7.30;99.90;;;;;;5036193;28;20865;-56
2021/10/29 06:23:07;;;;;;;27.70;23.30;;;7.30;99.90;;;;;;5035903;28;20485;-54
2021/10/29 06:25:41;;;;;;;28.53;23.47;;;7.40;99.90;;;;;;5035734;28;20433;-53
2021/10/29 06:30:47;;;;;;;26.30;21.73;;;7.50;99.90;;;;;;5036389;28;20395;-57
2021/10/29 06:33:19;;;;;;;23.10;19.00;;;7.50;99.90;;;;;;5036040;28;20486;-56
2021/10/29 06:35:45;;;;;;;25.00;20.30;;;7.60;99.90;;;;;;5036465;28;20399;-59
2021/10/29 06:38:12;;;;;;;26.50;21.23;;;7.70;99.90;;;;;;5036586;28;20436;-54
2021/10/29 06:40:42;;;;;;;23.20;20.47;;;7.70;99.90;;;;;;5036134;28;20203;-56
2021/10/29 06:43:14;;;;;;;23.00;20.33;;;7.80;99.90;;;;;;5018967;28;20417;-55
2021/10/29 06:48:34;;;;;;;24.30;17.20;;;7.80;99.90;;;;;;5036014;28;20424;-59
2021/10/29 06:59:59;;;;;;;21.10;18.87;;;8.30;99.90;;;;;;5035257;28;20468;-58
2021/10/29 07:05:22;;;;;;;25.47;21.13;;;8.50;99.90;;;;;;5035653;28;20379;-56
2021/10/29 07:40:33;;;;;;;20.23;17.90;;;9.40;99.90;;;;;;4996010;28;20513;-58
2021/10/29 07:43:01;;;;;;;19.20;17.10;;;9.50;99.90;;;;;;4995914;28;20810;-58
2021/10/29 07:45:28;;;;;;;19.40;16.20;;;9.70;99.90;;;;;;4995944;28;20421;-57
2021/10/29 07:47:58;;;;;;;18.37;16.37;;;9.80;99.90;;;;;;4995798;28;20404;-58
2021/10/29 07:50:24;;;;;;;17.80;15.20;;;9.80;99.90;;;;;;4995932;28;20433;-59
2021/10/29 07:52:53;;;;;;;17.20;15.10;;;9.80;99.90;;;;;;4995349;28;20897;-59
2021/10/29 07:55:21;;;;;;;19.63;16.87;;;10.00;99.90;;;;;;4995632;28;20482;-55
2021/10/29 07:57:48;;;;;;;19.20;16.63;;;10.20;99.90;;;;;;4994770;28;20412;-57
2021/10/29 08:00:17;;;;;;;18.53;15.33;;;10.30;99.90;;;;;;4995420;28;20982;-57
2021/10/29 08:02:47;;;;;;;18.60;14.73;;;10.50;99.90;;;;;;4994842;28;20752;-58
2021/10/29 08:05:12;;;;;;;16.90;15.17;;;10.70;99.90;;;;;;5013106;28;20466;-55
2021/10/29 08:07:41;;;;;;;19.47;15.70;;;10.80;99.90;;;;;;5034257;28;20412;-58
2021/10/29 08:10:09;;;;;;;16.13;14.47;;;10.80;99.90;;;;;;5034169;28;20180;-57
2021/10/29 08:12:36;;;;;;;20.20;17.87;;;10.50;99.90;;;;;;5032361;28;20465;-56
2021/10/29 08:15:03;;;;;;;19.13;15.23;;;10.60;99.90;;;;;;5033554;28;20406;-58
2021/10/29 08:17:32;;;;;;;17.60;15.73;;;10.80;99.90;;;;;;5032545;28;20456;-57
2021/10/29 08:19:59;;;;;;;19.40;15.27;;;10.90;99.90;;;;;;5032729;28;20806;-55
2021/10/29 08:22:24;;;;;;;18.60;16.37;;;11.10;99.90;;;;;;5034355;28;20451;-59
2021/10/29 08:24:50;;;;;;;15.33;13.80;;;11.10;99.90;;;;;;5034447;28;20426;-53
2021/10/29 08:27:16;;;;;;;20.13;17.97;;;11.20;99.90;;;;;;5034282;28;20629;-59
2021/10/29 08:29:41;;;;;;;16.80;15.10;;;11.30;99.90;;;;;;5034154;28;20206;-59
2021/10/29 08:32:08;;;;;;;17.53;15.63;;;11.20;99.90;;;;;;5016645;28;20550;-57
2021/10/29 08:34:34;;;;;;;18.80;15.00;;;11.40;99.90;;;;;;5034007;28;20583;-57
2021/10/29 08:37:04;;;;;;;15.97;14.10;;;11.50;99.90;;;;;;5033677;28;20914;-58
2021/10/29 08:39:31;;;;;;;16.03;14.40;;;11.60;99.90;;;;;;5033874;28;20441;-56
2021/10/29 08:41:58;;;;;;;17.00;15.40;;;11.80;99.90;;;;;;5033716;28;20406;-56
2021/10/29 08:44:24;;;;;;;19.17;15.63;;;11.90;99.90;;;;;;5033533;28;20421;-59
2021/10/29 08:46:49;;;;;;;18.63;16.87;;;11.90;99.90;;;;;;5033501;28;20405;-59
2021/10/29 08:49:16;;;;;;;17.90;14.97;;;11.70;99.90;;;;;;5033381;28;20453;-59
2021/10/29 08:51:42;;;;;;;15.97;13.43;;;11.50;99.90;;;;;;5034411;28;20179;-58
2021/10/29 08:54:09;;;;;;;19.67;15.73;;;11.50;99.90;;;;;;5034123;28;20403;-59
2021/10/29 08:56:35;;;;;;;17.27;14.17;;;11.70;99.90;;;;;;5033549;28;20401;-56
2021/10/29 08:59:13;;;;;;;23.67;20.00;;;11.70;99.90;;;;;;5033365;28;20789;-56
2021/10/29 09:01:50;;;;;;;17.57;15.67;;;11.90;99.90;;;;;;5033425;28;20413;-53
2021/10/29 09:04:21;;;;;;;18.90;16.67;;;11.90;99.90;;;;;;5033613;28;20413;-59
2021/10/29 09:17:48;;;;;;;16.57;14.70;;;11.80;99.90;;;;;;4994052;28;20387;-58
2021/10/29 09:33:55;;;;;;;17.67;15.87;;;12.10;99.90;;;;;;5037259;28;20417;-55
2021/10/29 09:36:33;;;;;;;18.07;16.23;;;12.30;99.90;;;;;;5037286;28;20947;-58
2021/10/29 09:39:03;;;;;;;15.63;14.13;;;12.40;99.90;;;;;;5036553;28;20422;-57
2021/10/29 09:41:29;;;;;;;16.13;14.47;;;12.40;99.90;;;;;;5036673;28;20956;-59
2021/10/29 09:44:01;;;;;;;15.83;13.83;;;12.40;99.90;;;;;;5037284;28;20407;-56
2021/10/29 09:46:37;;;;;;;15.47;13.87;;;12.50;99.90;;;;;;5037171;28;20731;-55
2021/10/29 09:49:16;;;;;;;18.33;14.87;;;12.70;99.90;;;;;;5037980;28;20410;-57
2021/10/29 09:52:50;;;;;;;15.83;13.10;;;13.00;99.90;;;;;;5037376;28;20371;-55
2021/10/29 09:57:21;;;;;;;17.30;15.37;;;13.30;99.90;;;;;;5037301;28;20391;-53
2021/10/29 09:59:51;;;;;;;17.70;15.83;;;13.20;99.90;;;;;;5037068;28;20524;-55
2021/10/29 10:02:21;;;;;;;20.77;17.30;;;13.20;99.90;;;;;;5038120;28;20813;-58
2021/10/29 10:04:50;;;;;;;20.20;16.57;;;13.40;99.90;;;;;;5036677;28;20412;-59
2021/10/29 10:07:19;;;;;;;15.63;13.80;;;13.60;99.90;;;;;;5036698;28;20409;-59
2021/10/29 10:09:45;;;;;;;16.90;15.30;;;13.60;99.90;;;;;;5018485;28;20450;-55
2021/10/29 10:12:13;;;;;;;16.63;15.03;;;13.60;99.90;;;;;;5036577;28;20410;-58
2021/10/29 10:14:39;;;;;;;23.33;16.20;;;13.60;99.90;;;;;;5037210;28;20617;-54
2021/10/29 10:17:05;;;;;;;20.13;14.90;;;13.60;99.90;;;;;;5035956;28;20500;-58
2021/10/29 10:19:32;;;;;;;17.43;14.40;;;13.80;99.90;;;;;;5036325;28;20493;-57
2021/10/29 10:21:59;;;;;;;17.77;15.93;;;13.90;99.90;;;;;;5036246;28;20412;-55
2021/10/29 10:24:31;;;;;;;16.77;14.40;;;13.90;99.90;;;;;;5022676;28;20426;-58
2021/10/29 10:30:05;;;;;;;20.10;16.67;;;14.10;99.90;;;;;;5029568;28;20464;-58
2021/10/29 10:41:31;;;;;;;17.10;15.30;;;14.90;99.90;;;;;;5034890;28;20834;-58
2021/10/29 10:44:20;;;;;;;17.03;14.50;;;15.10;99.90;;;;;;5035696;28;20913;-57
2021/10/29 10:46:52;;;;;;;14.50;13.10;;;15.40;99.90;;;;;;5035786;28;20381;-58
2021/10/29 10:49:20;;;;;;;15.23;13.30;;;16.40;99.90;;;;;;5036048;28;20509;-58
2021/10/29 10:51:58;;;;;;;17.13;13.57;;;17.00;99.90;;;;;;5035612;28;20443;-55
2021/10/29 10:54:39;;;;;;;15.13;13.20;;;18.60;99.90;;;;;;5035676;28;20443;-55
2021/10/29 10:57:36;;;;;;;15.53;13.17;;;20.10;99.90;;;;;;5035458;28;20402;-56
2021/10/29 11:00:15;;;;;;;14.50;12.57;;;22.00;97.90;;;;;;5017456;28;20457;-57
2021/10/29 11:10:41;;;;;;;13.33;11.70;;;24.60;91.00;;;;;;5035485;28;20540;-57
2021/10/29 11:13:09;;;;;;;13.83;10.93;;;25.10;90.00;;;;;;5035594;28;20390;-57
2021/10/29 11:15:36;;;;;;;10.70;9.70;;;25.30;88.60;;;;;;5035324;28;20899;-56
2021/10/29 11:18:25;;;;;;;12.37;11.27;;;25.60;86.30;;;;;;5035138;28;20440;-58
2021/10/29 11:20:53;;;;;;;15.80;11.90;;;25.50;85.80;;;;;;5035359;28;20907;-58
2021/10/29 11:23:21;;;;;;;13.33;12.13;;;25.30;85.00;;;;;;5020297;28;20428;-57
2021/10/29 11:26:05;;;;;;;11.87;10.67;;;25.30;85.40;;;;;;4996066;28;20446;-58
2021/10/29 11:28:42;;;;;;;12.27;10.47;;;25.30;84.60;;;;;;5001052;28;20433;-56
2021/10/29 11:31:14;;;;;;;12.87;11.47;;;26.00;84.00;;;;;;5035144;28;20394;-58
2021/10/29 11:33:41;;;;;;;13.63;12.43;;;25.00;85.50;;;;;;5034962;28;20386;-56
2021/10/29 11:36:10;;;;;;;14.00;12.50;;;25.10;85.20;;;;;;5035053;28;20402;-58
2021/10/29 11:38:39;;;;;;;14.90;13.50;;;24.20;86.40;;;;;;5035021;28;20425;-57
2021/10/29 11:41:12;;;;;;;13.30;12.20;;;24.60;85.50;;;;;;5035239;28;20453;-59
2021/10/29 11:43:39;;;;;;;12.47;11.37;;;24.90;86.00;;;;;;5035593;28;20402;-58
2021/10/29 11:46:08;;;;;;;12.17;11.07;;;25.40;84.30;;;;;;5035156;28;20847;-59
2021/10/29 11:48:49;;;;;;;11.97;10.33;;;25.60;84.90;;;;;;5034273;28;20794;-59
2021/10/29 11:51:16;;;;;;;11.73;10.63;;;26.80;82.30;;;;;;5035056;28;20481;-59
2021/10/29 11:53:51;;;;;;;11.93;10.83;;;27.30;79.10;;;;;;5034164;28;20406;-58
2021/10/29 11:56:45;;;;;;;11.80;10.70;;;27.30;79.30;;;;;;5034507;28;20940;-57
2021/10/29 11:59:50;;;;;;;9.93;9.03;;;27.20;77.90;;;;;;5033868;28;20446;-59
2021/10/29 12:07:20;;;;;;;11.23;10.23;;;26.90;78.10;;;;;;5034558;28;20251;-58
2021/10/29 12:10:16;;;;;;;11.00;9.90;;;26.70;78.40;;;;;;5061961;23;20484;-58
2021/10/29 12:12:45;;;;;;;12.13;11.13;;;25.80;80.90;;;;;;5053514;28;20413;-55
2021/10/29 12:15:21;;;;;;;11.27;10.27;;;26.00;79.40;;;;;;5054192;28;20397;-55
2021/10/29 12:18:00;;;;;;;10.40;9.40;;;26.00;80.40;;;;;;5054343;28;20381;-57
2021/10/29 12:20:32;;;;;;;10.43;9.20;;;26.40;79.70;;;;;;5054026;28;20445;-58
2021/10/29 12:23:07;;;;;;;8.83;8.03;;;25.70;80.00;;;;;;5054205;28;20473;-57
2021/10/29 12:28:04;;;;;;;9.03;8.13;;;26.10;79.10;;;;;;5054292;28;20434;-57
2021/10/29 12:53:09;;;;;;;6.40;5.00;;;27.10;69.90;;;;;;5053610;28;20403;-58
2021/10/29 13:03:45;;;;;;;6.17;5.60;;;27.20;68.90;;;;;;5052798;28;20919;-58
2021/10/29 13:06:17;;;;;;;5.43;4.87;;;27.40;68.50;;;;;;5053272;28;20798;-57
2021/10/29 13:08:48;;;;;;;6.77;5.00;;;27.90;68.00;;;;;;5052545;28;20445;-56
2021/10/29 13:11:16;;;;;;;4.73;4.33;;;28.40;67.20;;;;;;5053345;28;20390;-58
2021/10/29 13:16:10;;;;;;;4.90;4.40;;;29.30;66.60;;;;;;5043444;28;20407;-58
2021/10/29 13:21:43;;;;;;;7.70;4.20;;;29.30;65.10;;;;;;5032913;28;20437;-56
2021/10/29 13:24:16;;;;;;;3.90;3.53;;;29.10;65.50;;;;;;5032577;28;20790;-57
2021/10/29 13:51:12;;;;;;;12.90;6.20;;;22.40;79.50;;;;;;5053327;28;20392;-55
2021/10/29 14:31:10;;;;;;;5.57;5.07;;;16.80;99.90;;;;;;5025017;28;20412;-59
2021/10/29 14:33:43;;;;;;;6.53;4.23;;;16.70;99.90;;;;;;5054994;28;20942;-58
2021/10/29 14:36:10;;;;;;;10.40;4.60;;;16.70;99.90;;;;;;5056274;28;20416;-57
2021/10/29 14:38:55;;;;;;;5.70;4.67;;;16.70;99.90;;;;;;5055611;28;20516;-56
2021/10/29 14:41:38;;;;;;;5.43;4.00;;;16.60;99.90;;;;;;5055799;28;20440;-57
2021/10/29 14:44:11;;;;;;;4.50;4.10;;;16.30;99.90;;;;;;5056265;28;20795;-56
2021/10/29 14:46:42;;;;;;;4.87;4.23;;;16.20;99.90;;;;;;5055692;28;20473;-58
2021/10/29 15:16:00;;;;;;;5.63;4.90;;;14.90;99.90;;;;;;5055389;28;20942;-57
2021/10/29 15:29:36;;;;;;;5.83;5.23;;;14.60;99.90;;;;;;5034847;28;20421;-58
2021/10/29 15:32:23;;;;;;;5.73;5.03;;;14.50;99.90;;;;;;5034954;28;20396;-57
2021/10/29 15:45:39;;;;;;;8.97;6.77;;;14.00;99.90;;;;;;5054687;28;20491;-58
2021/10/29 15:48:09;;;;;;;7.80;6.80;;;13.90;99.90;;;;;;5054433;28;20604;-56
2021/10/29 15:50:36;;;;;;;7.40;5.60;;;13.80;99.90;;;;;;5054773;28;20494;-56
2021/10/29 15:53:03;;;;;;;7.17;5.90;;;13.80;99.90;;;;;;5054309;28;20794;-57
2021/10/29 15:55:47;;;;;;;8.63;7.37;;;13.70;99.90;;;;;;5054327;28;20412;-58
2021/10/29 15:58:23;;;;;;;7.30;6.53;;;13.70;99.90;;;;;;5054361;28;20378;-58
2021/10/29 16:03:24;;;;;;;8.63;7.10;;;13.40;99.90;;;;;;5053843;28;20928;-56
2021/10/29 16:19:31;;;;;;;9.27;7.50;;;12.90;99.90;;;;;;5053798;28;20456;-58
2021/10/29 16:21:58;;;;;;;9.20;8.30;;;12.70;99.90;;;;;;5053809;28;20407;-58
2021/10/29 16:24:23;;;;;;;11.10;8.50;;;12.70;99.90;;;;;;5053709;28;20486;-54
2021/10/29 16:26:51;;;;;;;9.50;8.60;;;12.70;99.90;;;;;;5053953;28;20942;-58
2021/10/29 16:29:22;;;;;;;8.77;7.67;;;12.60;99.90;;;;;;5053495;28;20195;-57
2021/10/29 16:31:48;;;;;;;9.53;8.53;;;12.60;99.90;;;;;;5053866;28;20397;-59
2021/10/29 16:34:14;;;;;;;12.27;7.90;;;12.50;99.90;;;;;;5053669;28;20464;-57
2021/10/29 16:36:41;;;;;;;8.90;8.00;;;12.40;99.90;;;;;;5053694;28;20401;-59
2021/10/29 16:39:07;;;;;;;9.03;7.20;;;12.30;99.90;;;;;;5057333;28;20220;-58
2021/10/29 16:41:32;;;;;;;10.13;8.27;;;12.30;99.90;;;;;;5056154;28;20453;-58
2021/10/29 16:43:58;;;;;;;10.43;8.93;;;12.30;99.90;;;;;;5055998;28;20405;-55
2021/10/29 16:46:24;;;;;;;9.33;8.33;;;12.30;99.90;;;;;;5056545;28;20172;-59
2021/10/29 16:48:49;;;;;;;9.40;8.40;;;12.50;99.90;;;;;;5055947;28;20212;-59
2021/10/29 16:51:16;;;;;;;11.07;7.70;;;12.60;99.90;;;;;;5055409;28;20899;-58
2021/10/29 16:53:43;;;;;;;10.27;8.60;;;12.80;99.90;;;;;;5054881;28;20261;-58
2021/10/29 16:56:10;;;;;;;9.20;8.23;;;12.70;99.90;;;;;;5055157;28;20405;-59
2021/10/29 16:58:35;;;;;;;11.03;8.20;;;12.70;99.90;;;;;;5055751;28;20425;-58
2021/10/29 17:01:01;;;;;;;12.37;10.23;;;12.80;99.90;;;;;;5055695;28;20451;-56
2021/10/29 17:03:27;;;;;;;10.17;9.17;;;12.60;99.90;;;;;;5052883;28;20563;-57
2021/10/29 17:05:54;;;;;;;10.27;9.10;;;12.50;99.90;;;;;;5052974;28;20235;-57
2021/10/29 17:08:19;;;;;;;10.63;9.47;;;12.50;99.90;;;;;;5053385;28;20939;-57
2021/10/29 17:10:45;;;;;;;12.80;9.40;;;12.50;99.90;;;;;;5053003;28;20425;-55
2021/10/29 17:13:11;;;;;;;9.43;8.57;;;12.50;99.90;;;;;;5054451;28;20173;-59
2021/10/29 17:15:36;;;;;;;9.70;8.80;;;12.50;99.90;;;;;;5054695;28;20166;-57
2021/10/29 17:18:04;;;;;;;9.63;7.47;;;12.50;99.90;;;;;;5052992;28;20571;-59